Portada
METAR-TAF:

METAR-TAF

Aeropuertos :

Aeropuerto de Copenhague-Roskilde

Roskilde, Dinamarca

latitud: 55-35N, longitud: 012-08E, altitud: 44 m

Observación

El informe se hizo hace 10 minutos, a las 03:20 UTC
Viento 1 kt del norte-noroeste
Temperatura 6°C
Humedad 100%
Presión 1028 hPa
Visibilidad 10 km o más

METAR: EKRK 010320Z AUTO 34001KT 9999 NCD 06/06 Q1028

Hora: 05:30 (03:30 UTC)

Pronóstico

El informe se hizo hace 1 hora y 29 minutos, a las 02:01 UTC
Pronóstico válido del 01 a las 03 UTC al 01 a las 12 UTC
Viento 5 kt del norte
Visibilidad 10 km o más
sin nubes por debajo de 1500 m y sin presencia de cumulonimbus.

TAF: EKRK 010201Z 0103/0112 01005KT CAVOK

Observaciones y pronósticos meteorológicos de más de 4000 aeropuertos (mensajes METAR y TAF).

Los puntos amarillos y rojos representan las estaciones disponibles.

Ponga el ratón en el punto deseado para ver el nombre de la estación.

Haga clic para ver las observaciones y los pronósticos meteorológicos.

Para cambiar el mapa : haga clic en los botones verdes con una cruz de color negro para hacer un zoom, en el botón verde con un guión para alejar o en las flechas verdes para mapas adyacentes.


METAR-TAF: